createdAt,value
2022-09-21T00:00:22.705Z,99254.67
2022-09-21T00:01:23.593Z,99251.80
2022-09-21T00:01:56.766Z,99251.44
2022-09-21T00:02:29.937Z,99252.48
2022-09-21T00:03:03.026Z,99253.66
2022-09-21T00:03:37.851Z,99256.94
2022-09-21T00:04:11.080Z,99253.51
2022-09-21T00:04:44.206Z,99255.85
2022-09-21T00:05:18.248Z,99255.09
2022-09-21T00:05:51.322Z,99253.61
2022-09-21T00:06:27.598Z,99254.46
2022-09-21T00:07:00.730Z,99255.60
2022-09-21T00:07:33.873Z,99253.46
2022-09-21T00:08:08.116Z,99253.16
2022-09-21T00:08:41.913Z,99257.20
2022-09-21T00:09:15.383Z,99254.37
2022-09-21T00:09:48.458Z,99254.42
2022-09-21T00:10:22.665Z,99256.88
2022-09-21T00:10:56.057Z,99257.04
2022-09-21T00:11:30.927Z,99257.80
2022-09-21T00:12:04.340Z,99255.27
2022-09-21T00:12:38.961Z,99256.56
2022-09-21T00:13:12.824Z,99258.50
2022-09-21T00:13:47.082Z,99258.30
2022-09-21T00:14:20.321Z,99253.13
2022-09-21T00:14:53.548Z,99256.98
2022-09-21T00:15:26.934Z,99257.34
2022-09-21T00:16:00.948Z,99258.88
2022-09-21T00:16:35.282Z,99257.69
2022-09-21T00:17:09.936Z,99255.99
2022-09-21T00:17:43.070Z,99257.41
2022-09-21T00:18:16.130Z,99256.88
2022-09-21T00:18:49.396Z,99257.64
2022-09-21T00:19:23.024Z,99258.20
2022-09-21T00:19:56.045Z,99258.73
2022-09-21T00:20:29.496Z,99255.98
2022-09-21T00:21:11.256Z,99255.91
2022-09-21T00:21:44.642Z,99256.19
2022-09-21T00:22:18.394Z,99256.08
2022-09-21T00:22:52.162Z,99257.85
2022-09-21T00:23:26.346Z,99260.02
2022-09-21T00:23:59.865Z,99259.16
2022-09-21T00:24:35.414Z,99255.73
2022-09-21T00:25:09.650Z,99258.31
2022-09-21T00:25:42.980Z,99254.77
2022-09-21T00:26:21.870Z,99255.06
2022-09-21T00:26:54.980Z,99256.60
2022-09-21T00:27:30.285Z,99257.16
2022-09-21T00:28:03.442Z,99256.23
2022-09-21T00:28:37.402Z,99257.65
2022-09-21T00:29:10.954Z,99255.23
2022-09-21T00:29:44.056Z,99256.98
2022-09-21T00:30:18.054Z,99253.98
2022-09-21T00:30:52.269Z,99256.77
2022-09-21T00:31:26.829Z,99256.63
2022-09-21T00:32:00.149Z,99256.77
2022-09-21T00:32:35.859Z,99255.11
2022-09-21T00:33:09.005Z,99256.00
2022-09-21T00:33:43.841Z,99257.88
2022-09-21T00:34:16.979Z,99256.99
2022-09-21T00:34:50.488Z,99258.64
2022-09-21T00:35:23.530Z,99256.74
2022-09-21T00:35:56.597Z,99258.11
2022-09-21T00:36:30.119Z,99255.52
2022-09-21T00:37:03.208Z,99256.77
2022-09-21T00:37:36.640Z,99259.68
2022-09-21T00:38:09.746Z,99258.16
2022-09-21T00:38:43.587Z,99256.71
2022-09-21T00:39:16.654Z,99257.15
2022-09-21T00:39:49.931Z,99256.30
2022-09-21T00:40:23.017Z,99256.31
2022-09-21T00:40:55.946Z,99257.84
2022-09-21T00:41:31.805Z,99255.79
2022-09-21T00:42:11.157Z,99255.33
2022-09-21T00:42:44.238Z,99259.59
2022-09-21T00:43:18.034Z,99263.18
2022-09-21T00:44:23.792Z,99260.95
2022-09-21T00:44:57.174Z,99260.77
2022-09-21T00:45:31.489Z,99262.16
2022-09-21T00:46:16.102Z,99260.34
2022-09-21T00:46:53.583Z,99259.52
2022-09-21T00:47:45.167Z,99260.16
2022-09-21T00:48:18.563Z,99260.94
2022-09-21T00:48:51.980Z,99257.08
2022-09-21T00:49:27.635Z,99262.45
2022-09-21T00:50:04.022Z,99260.67
2022-09-21T00:50:43.230Z,99261.00
2022-09-21T00:51:16.393Z,99261.50
2022-09-21T00:51:51.395Z,99260.66
2022-09-21T00:52:27.229Z,99260.43
2022-09-21T00:53:00.888Z,99261.94
2022-09-21T00:53:35.758Z,99258.98
2022-09-21T00:54:17.050Z,99255.86
2022-09-21T00:54:59.602Z,99258.30
2022-09-21T00:55:42.300Z,99260.10
2022-09-21T00:56:15.991Z,99260.34
2022-09-21T00:56:49.425Z,99257.63
2022-09-21T00:57:26.093Z,99255.71
2022-09-21T00:58:04.836Z,99257.27
2022-09-21T00:58:44.416Z,99257.42
2022-09-21T00:59:21.664Z,99256.89
2022-09-21T00:59:58.873Z,99255.61
2022-09-21T01:00:32.191Z,99255.94
2022-09-21T01:01:05.478Z,99256.55
2022-09-21T01:01:38.927Z,99256.13
2022-09-21T01:02:12.694Z,99258.60
2022-09-21T01:02:46.733Z,99257.27
2022-09-21T01:03:19.885Z,99259.33
2022-09-21T01:03:57.114Z,99254.80
2022-09-21T01:04:31.970Z,99256.85
2022-09-21T01:05:06.874Z,99255.48
2022-09-21T01:05:40.081Z,99259.64
2022-09-21T01:06:15.211Z,99258.29
2022-09-21T01:06:50.618Z,99259.34
2022-09-21T01:07:28.713Z,99254.36
2022-09-21T01:08:04.116Z,99256.60
2022-09-21T01:08:38.523Z,99256.52
2022-09-21T01:09:11.753Z,99255.27
2022-09-21T01:09:50.399Z,99253.85
2022-09-21T01:10:25.465Z,99253.85
2022-09-21T01:11:12.198Z,99254.38
2022-09-21T01:12:15.508Z,99252.44
2022-09-21T01:13:13.861Z,99253.77
2022-09-21T01:14:10.564Z,99252.89
2022-09-21T01:15:02.158Z,99252.42
2022-09-21T01:15:40.936Z,99253.98
2022-09-21T01:16:26.838Z,99252.59
2022-09-21T01:17:09.491Z,99255.80
2022-09-21T01:18:01.015Z,99255.25
2022-09-21T01:19:01.320Z,99257.27
2022-09-21T01:20:16.512Z,99254.85
2022-09-21T01:20:52.789Z,99258.04
2022-09-21T01:21:31.281Z,99257.13
2022-09-21T01:22:19.396Z,99259.39
2022-09-21T01:23:14.287Z,99256.86
2022-09-21T01:24:09.777Z,99257.00
2022-09-21T01:24:51.771Z,99259.06
2022-09-21T01:25:28.162Z,99257.45
2022-09-21T01:26:03.988Z,99259.72
2022-09-21T01:26:52.115Z,99257.59
2022-09-21T01:27:49.459Z,99256.98
2022-09-21T01:28:30.618Z,99254.80
2022-09-21T01:29:17.121Z,99256.73
2022-09-21T01:30:02.539Z,99254.34
2022-09-21T01:30:38.863Z,99254.80
2022-09-21T01:31:22.432Z,99252.29
2022-09-21T01:32:05.662Z,99253.23
2022-09-21T01:32:41.254Z,99253.08
2022-09-21T01:33:23.126Z,99251.70
2022-09-21T01:34:01.357Z,99251.99
2022-09-21T01:34:43.769Z,99252.20
2022-09-21T01:35:22.200Z,99251.87
2022-09-21T01:36:03.474Z,99250.36
2022-09-21T01:36:38.526Z,99250.00
2022-09-21T01:37:23.087Z,99250.82
2022-09-21T01:38:20.487Z,99250.68
2022-09-21T01:38:59.308Z,99250.46
2022-09-21T01:39:35.241Z,99251.71
2022-09-21T01:40:15.035Z,99252.42
2022-09-21T01:40:53.700Z,99246.98
2022-09-21T01:41:30.621Z,99249.88
2022-09-21T01:42:07.662Z,99250.34
2022-09-21T01:42:45.298Z,99250.30
2022-09-21T01:43:27.233Z,99250.36
2022-09-21T01:44:08.765Z,99249.55
2022-09-21T01:44:44.287Z,99249.38
2022-09-21T01:45:21.362Z,99249.25
2022-09-21T01:45:57.682Z,99247.80
2022-09-21T01:46:34.302Z,99250.40
2022-09-21T01:47:12.903Z,99249.02
2022-09-21T01:47:50.074Z,99248.72
2022-09-21T01:48:25.926Z,99246.45
2022-09-21T01:49:06.121Z,99249.20
2022-09-21T01:49:50.445Z,99246.05
2022-09-21T01:50:26.331Z,99249.53
2022-09-21T01:51:02.309Z,99248.03
2022-09-21T01:51:39.475Z,99247.38
2022-09-21T01:52:19.125Z,99247.54
2022-09-21T01:53:09.382Z,99251.58
2022-09-21T01:53:51.503Z,99252.36
2022-09-21T01:54:31.031Z,99252.23
2022-09-21T01:55:10.960Z,99253.16
2022-09-21T01:55:50.386Z,99253.12
2022-09-21T01:56:33.539Z,99254.80
2022-09-21T01:57:09.723Z,99254.91
2022-09-21T01:58:07.173Z,99251.26
2022-09-21T01:58:46.583Z,99254.80
2022-09-21T01:59:35.336Z,99254.22
2022-09-21T02:00:09.529Z,99251.96
2022-09-21T02:00:46.718Z,99252.48
2022-09-21T02:01:23.461Z,99255.73
2022-09-21T02:02:02.892Z,99252.05
2022-09-21T02:02:45.244Z,99248.73
2022-09-21T02:03:30.081Z,99254.81
2022-09-21T02:04:10.376Z,99254.67
2022-09-21T02:04:43.885Z,99258.67
2022-09-21T02:05:20.430Z,99256.02
2022-09-21T02:05:54.494Z,99256.84
2022-09-21T02:06:29.248Z,99255.14
2022-09-21T02:07:02.854Z,99254.61
2022-09-21T02:07:37.918Z,99254.94
2022-09-21T02:08:11.930Z,99255.46
2022-09-21T02:08:46.300Z,99258.73
2022-09-21T02:09:19.861Z,99256.02
2022-09-21T02:09:55.884Z,99257.09
2022-09-21T02:10:40.603Z,99257.39
2022-09-21T02:11:14.259Z,99257.02
2022-09-21T02:11:47.611Z,99257.35
2022-09-21T02:12:20.919Z,99256.07
2022-09-21T02:13:01.253Z,99260.52
2022-09-21T02:13:42.199Z,99256.69
2022-09-21T02:14:20.802Z,99256.50
2022-09-21T02:14:55.835Z,99257.48
2022-09-21T02:16:06.964Z,99254.60
2022-09-21T02:16:56.564Z,99258.91
2022-09-21T02:17:50.807Z,99254.48
2022-09-21T02:18:32.943Z,99257.70
2022-09-21T02:19:27.558Z,99257.86
2022-09-21T02:20:45.465Z,99256.70
2022-09-21T02:21:33.445Z,99260.02
2022-09-21T02:22:29.651Z,99257.77
2022-09-21T02:23:49.474Z,99255.98
2022-09-21T02:24:25.757Z,99254.04
2022-09-21T02:25:15.975Z,99257.36
2022-09-21T02:26:25.437Z,99259.75
2022-09-21T02:27:04.341Z,99259.23
2022-09-21T02:28:16.048Z,99259.34
2022-09-21T02:29:26.015Z,99261.70
2022-09-21T02:30:02.068Z,99258.27
2022-09-21T02:30:37.675Z,99260.23
2022-09-21T02:31:23.323Z,99258.83
2022-09-21T02:32:06.979Z,99263.04
2022-09-21T02:33:03.548Z,99265.23
2022-09-21T02:34:02.269Z,99266.23
2022-09-21T02:34:49.599Z,99267.39
2022-09-21T02:35:55.344Z,99264.69
2022-09-21T02:36:32.768Z,99264.20
2022-09-21T02:37:19.822Z,99264.56
2022-09-21T02:38:20.566Z,99266.42
2022-09-21T02:39:01.107Z,99265.02
2022-09-21T02:40:16.451Z,99264.24
2022-09-21T02:41:20.217Z,99268.26
2022-09-21T02:42:16.215Z,99264.23
2022-09-21T02:42:54.052Z,99264.59
2022-09-21T02:43:34.303Z,99264.67
2022-09-21T02:44:20.642Z,99265.02
2022-09-21T02:45:21.053Z,99266.04
2022-09-21T02:46:09.057Z,99266.56
2022-09-21T02:46:49.688Z,99267.98
2022-09-21T02:47:31.617Z,99264.27
2022-09-21T02:48:08.484Z,99267.55
2022-09-21T02:48:48.681Z,99268.48
2022-09-21T02:49:29.540Z,99268.17
2022-09-21T02:50:05.580Z,99269.55
2022-09-21T02:50:53.747Z,99268.23
2022-09-21T02:51:31.892Z,99275.15
2022-09-21T02:52:14.009Z,99271.94
2022-09-21T02:52:47.141Z,99270.96
2022-09-21T02:53:32.489Z,99274.23
2022-09-21T02:54:08.875Z,99273.02
2022-09-21T02:54:45.180Z,99272.47
2022-09-21T02:55:18.830Z,99272.59
2022-09-21T02:55:56.440Z,99273.21
2022-09-21T02:56:32.206Z,99272.00
2022-09-21T02:57:07.084Z,99277.02
2022-09-21T02:57:41.449Z,99275.67
2022-09-21T02:58:17.109Z,99276.81
2022-09-21T02:58:57.197Z,99276.59
2022-09-21T02:59:31.863Z,99275.59
2022-09-21T03:00:06.718Z,99276.40
2022-09-21T03:00:40.489Z,99276.89
2022-09-21T03:01:15.757Z,99276.96
2022-09-21T03:01:48.862Z,99277.71
2022-09-21T03:02:22.130Z,99276.10
2022-09-21T03:02:55.334Z,99277.36
2022-09-21T03:03:28.599Z,99275.70
2022-09-21T03:04:02.655Z,99272.81
2022-09-21T03:04:37.077Z,99273.59
2022-09-21T03:05:12.492Z,99277.73
2022-09-21T03:05:48.857Z,99275.92
2022-09-21T03:06:22.089Z,99276.02
2022-09-21T03:06:56.763Z,99279.70
2022-09-21T03:07:29.843Z,99279.17
2022-09-21T03:08:02.951Z,99278.91
2022-09-21T03:08:36.205Z,99280.93
2022-09-21T03:09:09.592Z,99282.50
2022-09-21T03:09:42.806Z,99282.48
2022-09-21T03:10:16.024Z,99281.05
2022-09-21T03:10:50.459Z,99282.48
2022-09-21T03:11:23.693Z,99282.41
2022-09-21T03:11:56.801Z,99278.40
2022-09-21T03:12:30.125Z,99280.78
2022-09-21T03:13:03.116Z,99281.95
2022-09-21T03:13:37.055Z,99277.95
2022-09-21T03:14:10.375Z,99278.64
2022-09-21T03:14:43.908Z,99279.90
2022-09-21T03:15:18.538Z,99279.63
2022-09-21T03:16:03.297Z,99280.39
2022-09-21T03:16:37.269Z,99280.91
2022-09-21T03:17:10.578Z,99278.76
2022-09-21T03:17:43.786Z,99278.27
2022-09-21T03:18:17.001Z,99279.48
2022-09-21T03:18:50.107Z,99280.23
2022-09-21T03:19:23.253Z,99282.29
2022-09-21T03:19:56.850Z,99282.91
2022-09-21T03:20:32.722Z,99282.03
2022-09-21T03:21:06.163Z,99284.70
2022-09-21T03:21:44.321Z,99283.79
2022-09-21T03:22:18.267Z,99283.11
2022-09-21T03:22:51.423Z,99284.20
2022-09-21T03:23:24.549Z,99283.80
2022-09-21T03:23:57.654Z,99284.80
2022-09-21T03:24:46.139Z,99284.14
2022-09-21T03:25:19.451Z,99283.16
2022-09-21T03:25:52.796Z,99282.99
2022-09-21T03:26:25.884Z,99280.61
2022-09-21T03:26:58.963Z,99282.15
2022-09-21T03:27:32.019Z,99281.21
2022-09-21T03:28:06.291Z,99282.59
2022-09-21T03:28:39.377Z,99283.52
2022-09-21T03:29:12.641Z,99281.26
2022-09-21T03:29:46.996Z,99283.11
2022-09-21T03:30:24.338Z,99282.31
2022-09-21T03:30:57.987Z,99283.41
2022-09-21T03:31:32.565Z,99281.31
2022-09-21T03:32:06.281Z,99283.84
2022-09-21T03:32:39.338Z,99280.55
2022-09-21T03:33:13.289Z,99282.19
2022-09-21T03:33:46.851Z,99280.80
2022-09-21T03:34:21.263Z,99283.76
2022-09-21T03:34:54.292Z,99280.90
2022-09-21T03:35:27.275Z,99283.75
2022-09-21T03:36:00.324Z,99282.89
2022-09-21T03:36:33.582Z,99284.46
2022-09-21T03:37:08.668Z,99282.77
2022-09-21T03:37:41.942Z,99281.23
2022-09-21T03:38:17.070Z,99282.51
2022-09-21T03:38:50.321Z,99280.48
2022-09-21T03:39:23.554Z,99283.14
2022-09-21T03:39:56.633Z,99283.10
2022-09-21T03:40:29.851Z,99282.25
2022-09-21T03:41:03.115Z,99282.70
2022-09-21T03:41:36.065Z,99280.86
2022-09-21T03:42:10.302Z,99282.64
2022-09-21T03:42:44.269Z,99282.85
2022-09-21T03:43:18.623Z,99281.86
2022-09-21T03:43:51.776Z,99281.50
2022-09-21T03:44:26.149Z,99280.52
2022-09-21T03:44:59.598Z,99284.20
2022-09-21T03:45:32.619Z,99283.27
2022-09-21T03:46:06.064Z,99284.39
2022-09-21T03:46:39.249Z,99287.54
2022-09-21T03:47:12.369Z,99286.36
2022-09-21T03:47:45.436Z,99286.95
2022-09-21T03:48:18.775Z,99288.73
2022-09-21T03:48:51.858Z,99286.34
2022-09-21T03:49:25.311Z,99285.81
2022-09-21T03:49:58.302Z,99288.27
2022-09-21T03:50:31.433Z,99285.71
2022-09-21T03:51:04.533Z,99288.66
2022-09-21T03:51:38.440Z,99285.69
2022-09-21T03:52:11.526Z,99285.58
2022-09-21T03:52:44.721Z,99285.30
2022-09-21T03:53:17.735Z,99285.30
2022-09-21T03:53:51.104Z,99285.31
2022-09-21T03:54:24.574Z,99285.40
2022-09-21T03:54:58.554Z,99286.59
2022-09-21T03:55:33.530Z,99284.67
2022-09-21T03:56:06.630Z,99285.66
2022-09-21T03:56:39.853Z,99285.30
2022-09-21T03:57:13.025Z,99285.55
2022-09-21T03:57:46.226Z,99288.91
2022-09-21T03:58:19.331Z,99290.23
2022-09-21T03:58:52.748Z,99291.41
2022-09-21T03:59:26.037Z,99287.61
2022-09-21T03:59:59.315Z,99289.58
2022-09-21T04:00:32.798Z,99288.96
2022-09-21T04:01:05.872Z,99286.93
2022-09-21T04:01:39.098Z,99289.92
2022-09-21T04:02:12.158Z,99285.63
2022-09-21T04:02:45.439Z,99288.86
2022-09-21T04:03:18.616Z,99287.71
2022-09-21T04:03:51.648Z,99287.52
2022-09-21T04:04:24.560Z,99287.08
2022-09-21T04:04:57.692Z,99285.82
2022-09-21T04:05:30.760Z,99288.73
2022-09-21T04:06:12.622Z,99289.10
2022-09-21T04:06:46.532Z,99288.81
2022-09-21T04:07:19.568Z,99287.60
2022-09-21T04:07:55.643Z,99288.98
2022-09-21T04:08:28.629Z,99288.32
2022-09-21T04:09:03.169Z,99287.80
2022-09-21T04:09:36.264Z,99287.06
2022-09-21T04:10:15.100Z,99285.14
2022-09-21T04:10:48.126Z,99287.10
2022-09-21T04:11:23.187Z,99288.75
2022-09-21T04:11:56.739Z,99290.13
2022-09-21T04:12:29.871Z,99291.23
2022-09-21T04:13:04.606Z,99290.16
2022-09-21T04:13:37.860Z,99289.66
2022-09-21T04:14:12.802Z,99290.85
2022-09-21T04:14:45.952Z,99288.98
2022-09-21T04:15:20.412Z,99288.22
2022-09-21T04:15:53.536Z,99291.63
2022-09-21T04:16:27.422Z,99290.60
2022-09-21T04:17:00.545Z,99289.77
2022-09-21T04:17:34.822Z,99289.48
2022-09-21T04:18:08.387Z,99292.66
2022-09-21T04:18:41.534Z,99293.49
2022-09-21T04:19:14.589Z,99293.14
2022-09-21T04:19:48.073Z,99291.01
2022-09-21T04:20:21.985Z,99292.55
2022-09-21T04:20:55.112Z,99290.57
2022-09-21T04:21:28.466Z,99288.70
2022-09-21T04:22:01.669Z,99288.91
2022-09-21T04:22:42.691Z,99292.90
2022-09-21T04:23:16.950Z,99293.20
2022-09-21T04:23:50.573Z,99292.02
2022-09-21T04:24:24.312Z,99293.08
2022-09-21T04:24:57.804Z,99292.13
2022-09-21T04:25:30.894Z,99294.39
2022-09-21T04:26:03.966Z,99293.67
2022-09-21T04:26:37.442Z,99294.45
2022-09-21T04:27:12.394Z,99294.56
2022-09-21T04:27:45.922Z,99294.84
2022-09-21T04:28:19.163Z,99296.07
2022-09-21T04:28:53.541Z,99293.49
2022-09-21T04:29:26.592Z,99296.92
2022-09-21T04:30:01.167Z,99295.94
2022-09-21T04:30:37.806Z,99296.71
2022-09-21T04:31:11.409Z,99295.54
2022-09-21T04:31:44.655Z,99296.60
2022-09-21T04:32:17.800Z,99295.31
2022-09-21T04:32:51.118Z,99297.16
2022-09-21T04:33:24.286Z,99301.20
2022-09-21T04:33:58.147Z,99298.33
2022-09-21T04:34:31.884Z,99296.23
2022-09-21T04:35:05.491Z,99293.96
2022-09-21T04:35:39.318Z,99298.61
2022-09-21T04:36:12.267Z,99293.64
2022-09-21T04:36:46.262Z,99296.42
2022-09-21T04:37:19.440Z,99293.64
2022-09-21T04:37:56.903Z,99291.92
2022-09-21T04:38:32.023Z,99293.27
2022-09-21T04:39:05.903Z,99293.27
2022-09-21T04:39:39.699Z,99292.59
2022-09-21T04:40:13.254Z,99293.20
2022-09-21T04:40:55.356Z,99294.34
2022-09-21T04:41:28.542Z,99290.64
2022-09-21T04:42:02.407Z,99293.70
2022-09-21T04:42:35.716Z,99291.80
2022-09-21T04:43:08.837Z,99293.37
2022-09-21T04:43:43.727Z,99294.29
2022-09-21T04:44:18.966Z,99293.88
2022-09-21T04:44:52.131Z,99295.65
2022-09-21T04:45:25.383Z,99294.56
2022-09-21T04:45:58.851Z,99297.16
2022-09-21T04:46:32.035Z,99295.98
2022-09-21T04:47:05.501Z,99297.66
2022-09-21T04:47:38.628Z,99294.11
2022-09-21T04:48:12.278Z,99298.73
2022-09-21T04:48:45.773Z,99298.76
2022-09-21T04:49:19.009Z,99298.66
2022-09-21T04:49:56.004Z,99301.31
2022-09-21T04:50:29.347Z,99303.05
2022-09-21T04:51:04.133Z,99301.34
2022-09-21T04:51:37.486Z,99301.86
2022-09-21T04:52:10.643Z,99304.63
2022-09-21T04:52:43.953Z,99302.27
2022-09-21T04:53:17.839Z,99305.32
2022-09-21T04:53:51.720Z,99305.92
2022-09-21T04:54:25.133Z,99304.39
2022-09-21T04:54:58.231Z,99309.29
2022-09-21T04:55:32.043Z,99306.13
2022-09-21T04:56:06.585Z,99308.23
2022-09-21T04:56:40.325Z,99307.61
2022-09-21T04:57:14.497Z,99307.91
2022-09-21T04:57:47.663Z,99310.14
2022-09-21T04:58:24.334Z,99312.38
2022-09-21T04:58:57.955Z,99311.72
2022-09-21T04:59:31.009Z,99313.55
2022-09-21T05:00:05.907Z,99312.14
2022-09-21T05:00:39.128Z,99310.86
2022-09-21T05:01:12.282Z,99314.89
2022-09-21T05:01:45.532Z,99315.19
2022-09-21T05:02:18.806Z,99315.19
2022-09-21T05:02:51.971Z,99311.47
2022-09-21T05:03:27.086Z,99313.85
2022-09-21T05:04:02.673Z,99314.39
2022-09-21T05:04:35.835Z,99313.89
2022-09-21T05:05:09.194Z,99314.41
2022-09-21T05:05:47.696Z,99316.23
2022-09-21T05:06:20.738Z,99314.54
2022-09-21T05:06:54.360Z,99313.33
2022-09-21T05:07:27.601Z,99313.67
2022-09-21T05:08:00.944Z,99315.17
2022-09-21T05:08:52.877Z,99315.25
2022-09-21T05:09:45.069Z,99317.02
2022-09-21T05:10:18.342Z,99320.45
2022-09-21T05:10:53.515Z,99319.83
2022-09-21T05:11:27.108Z,99321.77
2022-09-21T05:12:00.211Z,99320.26
2022-09-21T05:12:38.523Z,99324.39
2022-09-21T05:13:17.826Z,99320.27
2022-09-21T05:13:53.197Z,99322.89
2022-09-21T05:14:26.229Z,99323.65
2022-09-21T05:14:59.780Z,99322.84
2022-09-21T05:15:32.870Z,99319.66
2022-09-21T05:16:06.910Z,99318.15
2022-09-21T05:16:40.304Z,99319.40
2022-09-21T05:17:13.685Z,99320.85
2022-09-21T05:17:47.055Z,99320.77
2022-09-21T05:18:20.160Z,99324.85
2022-09-21T05:18:55.754Z,99321.73
2022-09-21T05:19:28.853Z,99323.20
2022-09-21T05:20:02.209Z,99324.04
2022-09-21T05:20:35.383Z,99324.20
2022-09-21T05:21:11.597Z,99325.52
2022-09-21T05:21:44.773Z,99325.02
2022-09-21T05:22:18.161Z,99325.47
2022-09-21T05:22:51.387Z,99328.23
2022-09-21T05:23:25.383Z,99328.13
2022-09-21T05:23:59.189Z,99324.09
2022-09-21T05:24:32.664Z,99324.29
2022-09-21T05:25:06.783Z,99330.40
2022-09-21T05:25:40.634Z,99325.23
2022-09-21T05:26:14.742Z,99325.52
2022-09-21T05:26:48.655Z,99328.62
2022-09-21T05:27:22.499Z,99329.67
2022-09-21T05:27:55.837Z,99330.68
2022-09-21T05:28:29.708Z,99331.48
2022-09-21T05:29:03.283Z,99331.25
2022-09-21T05:29:36.947Z,99333.23
2022-09-21T05:30:11.207Z,99330.92
2022-09-21T05:31:16.694Z,99332.17
2022-09-21T05:32:13.358Z,99331.05
2022-09-21T05:33:01.731Z,99335.64
2022-09-21T05:33:36.860Z,99334.83
2022-09-21T05:34:12.794Z,99335.92
2022-09-21T05:35:19.804Z,99335.92
2022-09-21T05:36:23.310Z,99338.21
2022-09-21T05:37:06.535Z,99340.60
2022-09-21T05:37:52.605Z,99343.15
2022-09-21T05:38:26.213Z,99341.56
2022-09-21T05:38:59.954Z,99339.34
2022-09-21T05:39:33.483Z,99342.94
2022-09-21T05:40:07.655Z,99343.30
2022-09-21T05:40:41.071Z,99345.02
2022-09-21T05:41:14.678Z,99342.94
2022-09-21T05:41:48.449Z,99339.10
2022-09-21T05:42:21.907Z,99339.30
2022-09-21T05:42:56.748Z,99339.03
2022-09-21T05:43:30.228Z,99338.11
2022-09-21T05:44:03.966Z,99337.93
2022-09-21T05:44:37.502Z,99337.80
2022-09-21T05:45:17.210Z,99339.18
2022-09-21T05:45:58.635Z,99337.95
2022-09-21T05:46:39.610Z,99337.89
2022-09-21T05:47:38.454Z,99339.27
2022-09-21T05:48:19.583Z,99337.83
2022-09-21T05:49:30.789Z,99335.81
2022-09-21T05:50:22.756Z,99340.62
2022-09-21T05:51:03.967Z,99342.23
2022-09-21T05:52:14.554Z,99341.23
2022-09-21T05:52:59.002Z,99345.77
2022-09-21T05:53:47.419Z,99343.00
2022-09-21T05:54:34.147Z,99341.59
2022-09-21T05:55:23.895Z,99338.80
2022-09-21T05:56:01.103Z,99345.59
2022-09-21T05:57:17.378Z,99341.95
2022-09-21T05:57:54.904Z,99345.71
2022-09-21T05:58:46.166Z,99346.28
2022-09-21T05:59:31.751Z,99348.95
2022-09-21T06:00:14.939Z,99345.46
2022-09-21T06:00:55.000Z,99349.05
2022-09-21T06:01:59.668Z,99347.88
2022-09-21T06:02:42.157Z,99350.16
2022-09-21T06:03:44.889Z,99350.12
2022-09-21T06:04:18.411Z,99350.14
2022-09-21T06:04:54.560Z,99351.73
2022-09-21T06:05:27.694Z,99352.53
2022-09-21T06:06:00.822Z,99354.27
2022-09-21T06:06:34.116Z,99353.45
2022-09-21T06:07:07.341Z,99352.20
2022-09-21T06:07:41.790Z,99354.41
2022-09-21T06:08:14.886Z,99354.08
2022-09-21T06:08:48.146Z,99353.64
2022-09-21T06:09:21.311Z,99357.09
2022-09-21T06:09:54.499Z,99356.10
2022-09-21T06:10:32.672Z,99352.52
2022-09-21T06:11:06.170Z,99353.16
2022-09-21T06:11:39.432Z,99358.67
2022-09-21T06:12:12.706Z,99358.67
2022-09-21T06:12:46.082Z,99356.55
2022-09-21T06:13:19.859Z,99356.73
2022-09-21T06:13:53.047Z,99356.30
2022-09-21T06:14:26.995Z,99360.48
2022-09-21T06:15:00.091Z,99360.73
2022-09-21T06:15:38.558Z,99356.68
2022-09-21T06:16:12.158Z,99361.54
2022-09-21T06:16:45.515Z,99360.36
2022-09-21T06:17:18.747Z,99361.97
2022-09-21T06:17:51.845Z,99358.27
2022-09-21T06:18:24.996Z,99358.65
2022-09-21T06:18:58.161Z,99361.20
2022-09-21T06:19:31.188Z,99363.04
2022-09-21T06:20:06.693Z,99358.77
2022-09-21T06:20:39.905Z,99359.84
2022-09-21T06:21:13.040Z,99361.13
2022-09-21T06:21:46.419Z,99361.89
2022-09-21T06:22:19.707Z,99364.88
2022-09-21T06:22:52.800Z,99364.25
2022-09-21T06:23:25.875Z,99361.88
2022-09-21T06:23:59.115Z,99361.98
2022-09-21T06:24:32.232Z,99361.70
2022-09-21T06:25:06.214Z,99360.41
2022-09-21T06:25:39.955Z,99363.05
2022-09-21T06:26:13.224Z,99359.54
2022-09-21T06:26:46.416Z,99362.84
2022-09-21T06:27:19.639Z,99359.78
2022-09-21T06:27:52.860Z,99364.19
2022-09-21T06:28:27.074Z,99364.04
2022-09-21T06:29:00.632Z,99364.36
2022-09-21T06:29:34.221Z,99361.80
2022-09-21T06:30:08.293Z,99363.23
2022-09-21T06:30:43.168Z,99362.40
2022-09-21T06:31:16.359Z,99367.06
2022-09-21T06:31:52.510Z,99362.48
2022-09-21T06:32:25.942Z,99364.33
2022-09-21T06:33:04.468Z,99363.92
2022-09-21T06:33:38.241Z,99363.27
2022-09-21T06:34:11.290Z,99365.90
2022-09-21T06:34:44.431Z,99366.79
2022-09-21T06:35:17.627Z,99367.18
2022-09-21T06:35:58.871Z,99366.92
2022-09-21T06:36:32.076Z,99367.16
2022-09-21T06:37:05.305Z,99366.44
2022-09-21T06:37:42.237Z,99367.03
2022-09-21T06:38:15.286Z,99368.16
2022-09-21T06:38:48.734Z,99367.34
2022-09-21T06:39:21.911Z,99366.62
2022-09-21T06:39:55.294Z,99369.04
2022-09-21T06:40:30.476Z,99364.80
2022-09-21T06:41:05.256Z,99365.30
2022-09-21T06:41:38.557Z,99365.55
2022-09-21T06:42:11.666Z,99366.30
2022-09-21T06:42:44.740Z,99365.40
2022-09-21T06:43:18.820Z,99363.74
2022-09-21T06:43:55.674Z,99364.40
2022-09-21T06:44:30.183Z,99365.48
2022-09-21T06:45:03.929Z,99369.92
2022-09-21T06:45:37.472Z,99366.29
2022-09-21T06:46:10.556Z,99368.71
2022-09-21T06:46:43.660Z,99367.42
2022-09-21T06:47:16.707Z,99369.45
2022-09-21T06:47:49.789Z,99372.65
2022-09-21T06:48:24.064Z,99370.63
2022-09-21T06:48:57.176Z,99372.52
2022-09-21T06:49:30.310Z,99373.39
2022-09-21T06:50:03.674Z,99370.63
2022-09-21T06:50:36.995Z,99373.17
2022-09-21T06:51:10.499Z,99370.29
2022-09-21T06:51:43.737Z,99371.63
2022-09-21T06:52:17.240Z,99372.58
2022-09-21T06:52:50.380Z,99373.92
2022-09-21T06:53:23.686Z,99372.36
2022-09-21T06:53:58.299Z,99370.80
2022-09-21T06:54:31.936Z,99370.05
2022-09-21T06:55:05.609Z,99372.60
2022-09-21T06:55:39.077Z,99370.27
2022-09-21T06:56:12.630Z,99373.55
2022-09-21T06:56:46.018Z,99373.45
2022-09-21T06:57:19.132Z,99371.71
2022-09-21T06:57:52.414Z,99372.20
2022-09-21T06:58:25.689Z,99373.41
2022-09-21T06:58:58.943Z,99375.79
2022-09-21T06:59:32.062Z,99375.86
2022-09-21T07:00:07.905Z,99376.42
2022-09-21T07:00:41.396Z,99375.54
2022-09-21T07:01:16.184Z,99375.39
2022-09-21T07:01:49.429Z,99379.11
2022-09-21T07:02:22.696Z,99378.41
2022-09-21T07:02:56.036Z,99377.29
2022-09-21T07:03:29.176Z,99378.46
2022-09-21T07:04:02.442Z,99379.85
2022-09-21T07:04:35.781Z,99378.18
2022-09-21T07:05:09.093Z,99378.63
2022-09-21T07:05:46.531Z,99379.55
2022-09-21T07:06:20.762Z,99379.76
2022-09-21T07:06:54.115Z,99377.13
2022-09-21T07:07:32.012Z,99378.09
2022-09-21T07:08:05.629Z,99379.34
2022-09-21T07:10:26.903Z,99379.29
2022-09-21T07:11:01.331Z,99381.77
2022-09-21T07:11:34.574Z,99381.20
2022-09-21T07:12:08.484Z,99378.75
2022-09-21T07:12:42.161Z,99382.11
2022-09-21T07:13:16.686Z,99382.56
2022-09-21T07:13:51.004Z,99381.63
2022-09-21T07:14:24.170Z,99383.00
2022-09-21T07:14:57.404Z,99382.73
2022-09-21T07:15:31.474Z,99384.77
2022-09-21T07:16:09.492Z,99385.28
2022-09-21T07:16:43.654Z,99385.53
2022-09-21T07:17:16.936Z,99382.34